Air Sicilia Virtual Airways - Route

Air Sicilia Virtual Airways - SIC378L

( JP ) RJCC
New Chitose Airport
CHITOSE / TOMAKOMAI ( CTS )
plane_to ( RU ) UEEE
Yakutsk Airport
YAKUTSK ( YKS )
IFR World Tour IVAO 2019 - LEG: 25

AIRPORT NEAR NAVIGATION AIDS

Type Name Frequency
VOR-DME Mukawa 116400 KHZ
NDB Naganuma 377 KHZ

METAR / TAF
RJCC 191600Z 18006KT 9999 FEW015 13/10 Q1017
RJCC 191105Z 1912/2018 15008KT 9999 FEW008 SCT015 TEMPO 1912/1915 FEW002 BKN005 BECMG 1922/2000 16022G32KT TEMPO 2000/2009 16030G42KT

RUNWAY INFORMATION

Runway Runway length Runway width Runway elevation Runway displaced threshold Runway heading
01L 9840 200 62 0 353
19R 9840 200 82 0 173
01R 9840 200 57 0 352.6
19L 9840 200 77 0 172.6

AIRPORT FREQUENCIES

Type Name Frequency
APP CHITOSE AP 120.1 MHZ
ATIS ATIS 128.6 MHZ
CLD CHITOSE CL 121.9 MHZ
DEP CHITOSE DE 124.7 MHZ
GND CHITOSE GN 121.6 MHZ
TCA TCA 127.7 MHZ
TWR CHITOSE TW 118.8 MHZ

AIRPORT NEAR NAVIGATION AIDS

Type Name Frequency
NDB Yakutsk 334 KHZ
NDB Yakutsk 290 KHZ
NDB Yakutsk 334 KHZ

METAR / TAF
UEEE 191600Z 31003MPS CAVOK 01/M09 Q1011 R23L/09//60 NOSIG RMK QFE749
UEEE 191400Z 1915/2021 30003G08MPS CAVOK= UHMA 191345Z 1915/2015 16003MPS 9999 SCT013 BKN050 TEMPO 1915/2012 11008MPS 4000 BR BKN013 TEMPO 2012/2015 VRB01MPS

RUNWAY INFORMATION

Runway Runway length Runway width Runway elevation Runway displaced threshold Runway heading
05L 8202 161 322 0 29.6
23R 8202 161 318 3400 209.6
05R 11155 197 322 2965 36.9
23L 11155 197 315 0 216.9

AIRPORT FREQUENCIES

Type Name Frequency
APP APP 129.3 MHZ
ATIS ATIS 126.2 MHZ
GND GND 121.7 MHZ
RDR ASR 120.3 MHZ
TWR TWR 120 MHZ

Flightplan

Air Sicilia Virtual Airways Fleets

AVAILABLE AIRCRAFTS for route at this time in New Chitose Airport
A318 - Airbus A318
( UE ) Airbus

Aircraft in fleet: 1

A319 - Airbus A319
( UE ) Airbus

Aircraft in fleet: 7

A320 - Airbus A320
( UE ) Airbus

Aircraft in fleet: 15

A321 - Airbus A321
( UE ) Airbus

Aircraft in fleet: 6

A332 - Airbus A330-200
( UE ) Airbus

Aircraft in fleet: 7

B738 - Boeing 737-800 NGX
( US ) Boeing

Aircraft in fleet: 33

B739 - Boeing 737-900 NGX
( US ) Boeing

Aircraft in fleet: 2

B748 - BOEING 747-8 Intercontinental Passenger
( US ) Boeing

Aircraft in fleet: 3

B74F - BOEING 747 Freight
( US ) Boeing

Aircraft in fleet: 6

B752 - Boeing 757 - 200 Passenger
( US ) Boeing

Aircraft in fleet: 1

B75F - Boeing 757 - 200 Freight
( US ) Boeing

Aircraft in fleet: 4

B77F - Boeing 777F
( US ) Boeing

Aircraft in fleet: 6

B77W - Boeing 777-300ER
( US ) Boeing

Aircraft in fleet: 4

DH8D - Dash 8 Q400
( CA ) Bombardier

Aircraft in fleet: 6

E195 - Embraer E195
( BR ) Embraer

Aircraft in fleet: 3

MD82 - McDonnel Douglas MD82
( US ) Douglas

Aircraft in fleet: 3

1236 NM

Distance in nautical miles.

€ 200,00

Ticket price for this flight.

Nr. 25

Leg



12-11-2018
Aerosoft Airport Rio de Janeiro International V2.0 XP

L'Aeroporto Internazionale di Rio de Janeiro-Galeão (IATA: GIG, ICAO: SBGL), costruito nel 1952 nel quartiere di Ilha do Governador ed intitolato al musicista Antônio Carlos Jobim, è il principale aeroporto internazio ....


15-10-2018
Aerosoft A320 Family professional

La gamma di aeromobili A320 è una delle più comuni nei cieli. Questi aerei di linea a doppio-getto a corto e medio raggio si sono dimostrati convenienti, affidabili e prontamente disponibili, rendendoli le opzioni migl ....


10-10-2018
Motore critico ( Critical Engine )

Il motore critico di un velivolo ad ala fissa multi-motore è il motore che, in caso di guasto, influirebbe negativamente sulle prestazioni o sulla capacità di manovra di un aereo. Sui velivoli ad elica, vi è un ....


04-10-2018
Aerosoft Dortmund XP

Scopri il centro della regione della Ruhr su XPlane 11 - lo scenario Dortmund XP è una ricostruzione completa della città di Dortmund per il simulatore di volo targato Laminar. Oltre all'intera area urbana di Dortmu ....


07-08-2018
Aerosoft Professional Flight Planner PFPX

PFPX - Professional Flight Planner X - è un nuovo ed innovativo strumento di pianificazione del volo sviluppato da piloti e dispatcher del mondo reale. È un'aggiunta preziosa e realistica alla tua esperienza di simulaz ....